createdAt,value
2018-11-13T00:00:04.472Z,77.80
2018-11-13T00:05:33.858Z,77.70
2018-11-13T00:11:03.141Z,77.50
2018-11-13T00:16:32.486Z,77.70
2018-11-13T00:22:01.865Z,77.80
2018-11-13T00:27:31.195Z,77.80
2018-11-13T00:33:00.556Z,77.80
2018-11-13T00:38:29.888Z,77.70
2018-11-13T00:43:59.116Z,77.70
2018-11-13T00:49:28.452Z,77.80
2018-11-13T00:54:57.809Z,77.80
2018-11-13T01:00:27.093Z,77.90
2018-11-13T01:05:56.369Z,77.90
2018-11-13T01:11:25.632Z,78.00
2018-11-13T01:16:54.929Z,78.20
2018-11-13T01:22:24.125Z,78.30
2018-11-13T01:27:53.360Z,78.30
2018-11-13T01:33:22.588Z,78.40
2018-11-13T01:38:51.889Z,78.50
2018-11-13T01:44:21.173Z,78.40
2018-11-13T01:49:50.447Z,78.40
2018-11-13T01:55:19.880Z,78.60
2018-11-13T02:00:49.141Z,78.50
2018-11-13T02:06:18.345Z,78.60
2018-11-13T02:11:47.590Z,78.40
2018-11-13T02:17:16.844Z,78.40
2018-11-13T02:22:46.059Z,78.30
2018-11-13T02:28:16.290Z,78.40
2018-11-13T02:33:45.521Z,78.20
2018-11-13T02:39:14.876Z,78.30
2018-11-13T02:44:44.235Z,78.20
2018-11-13T02:50:19.712Z,78.10
2018-11-13T02:55:49.064Z,78.20
2018-11-13T03:01:18.279Z,78.00
2018-11-13T03:06:47.497Z,78.00
2018-11-13T03:12:16.937Z,78.10
2018-11-13T03:17:46.199Z,78.20
2018-11-13T03:23:15.483Z,78.30
2018-11-13T03:28:44.695Z,78.20
2018-11-13T03:34:14.760Z,78.30
2018-11-13T03:39:44.788Z,78.40
2018-11-13T03:45:14.395Z,78.40
2018-11-13T03:50:43.663Z,78.40
2018-11-13T03:56:12.944Z,78.50
2018-11-13T04:01:44.304Z,78.40
2018-11-13T04:07:13.483Z,78.40
2018-11-13T04:12:42.931Z,78.50
2018-11-13T04:18:12.276Z,78.50
2018-11-13T04:23:41.495Z,78.60
2018-11-13T04:29:10.787Z,78.50
2018-11-13T04:34:40.090Z,78.40
2018-11-13T04:40:12.855Z,78.40
2018-11-13T04:45:42.101Z,78.40
2018-11-13T04:51:11.434Z,78.30
2018-11-13T04:56:41.579Z,78.30
2018-11-13T05:02:10.921Z,78.60
2018-11-13T05:07:40.328Z,78.60
2018-11-13T05:13:09.667Z,78.50
2018-11-13T05:18:39.019Z,78.50
2018-11-13T05:24:08.361Z,78.40
2018-11-13T05:29:37.671Z,78.50
2018-11-13T05:35:10.520Z,78.60
2018-11-13T05:40:39.813Z,78.60
2018-11-13T05:46:10.097Z,78.60
2018-11-13T05:51:39.572Z,78.60
2018-11-13T05:57:08.992Z,78.60
2018-11-13T06:02:38.554Z,78.70
2018-11-13T06:08:07.790Z,78.70
2018-11-13T06:13:37.086Z,78.60
2018-11-13T06:19:06.402Z,78.50
2018-11-13T06:24:35.645Z,78.50
2018-11-13T06:30:07.536Z,78.50
2018-11-13T06:35:36.726Z,78.50
2018-11-13T06:41:06.496Z,78.50
2018-11-13T06:46:35.730Z,78.60
2018-11-13T06:52:04.974Z,78.70
2018-11-13T06:57:34.497Z,78.90
2018-11-13T07:03:03.671Z,79.00
2018-11-13T07:08:32.892Z,79.10
2018-11-13T07:14:02.084Z,79.20
2018-11-13T07:19:31.340Z,79.40
2018-11-13T07:25:00.592Z,79.60
2018-11-13T07:30:29.862Z,79.80
2018-11-13T07:35:59.073Z,80.10
2018-11-13T07:41:28.280Z,80.40
2018-11-13T07:46:57.657Z,80.60
2018-11-13T07:52:26.803Z,80.70
2018-11-13T07:57:57.133Z,80.80
2018-11-13T08:03:32.374Z,80.70
2018-11-13T08:09:01.564Z,80.70
2018-11-13T08:14:30.780Z,80.70
2018-11-13T08:19:59.993Z,81.20
2018-11-13T08:25:29.243Z,80.50
2018-11-13T08:30:58.425Z,80.30
2018-11-13T08:36:27.656Z,80.10
2018-11-13T08:41:56.886Z,79.90
2018-11-13T08:47:26.284Z,79.80
2018-11-13T08:52:55.576Z,78.30
2018-11-13T08:58:24.795Z,78.10
2018-11-13T09:03:53.996Z,77.90
2018-11-13T09:09:23.193Z,77.60
2018-11-13T09:14:52.408Z,77.00
2018-11-13T09:20:21.760Z,76.50
2018-11-13T09:25:50.961Z,76.00
2018-11-13T09:31:20.224Z,74.80
2018-11-13T09:36:49.446Z,73.90
2018-11-13T09:42:18.804Z,72.80
2018-11-13T09:47:48.122Z,72.00
2018-11-13T09:53:18.372Z,71.60
2018-11-13T09:58:47.646Z,71.20
2018-11-13T10:04:17.530Z,70.50
2018-11-13T10:09:46.136Z,69.70
2018-11-13T10:15:24.239Z,68.20
2018-11-13T10:20:53.560Z,68.80
2018-11-13T10:26:22.837Z,68.90
2018-11-13T10:31:52.032Z,69.40
2018-11-13T10:37:21.347Z,69.60
2018-11-13T10:42:51.173Z,69.40
2018-11-13T10:48:20.561Z,69.70
2018-11-13T10:53:50.247Z,70.00
2018-11-13T10:59:20.802Z,70.00
2018-11-13T11:04:50.817Z,70.10
2018-11-13T11:10:23.126Z,70.30
2018-11-13T11:15:53.033Z,70.00
2018-11-13T11:21:38.145Z,70.20
2018-11-13T11:27:30.387Z,70.40
2018-11-13T11:33:23.935Z,70.10
2018-11-13T11:39:04.093Z,70.10
2018-11-13T11:44:38.210Z,69.70
2018-11-13T11:50:21.021Z,69.70
2018-11-13T11:55:53.646Z,69.90
2018-11-13T12:07:20.460Z,69.90
2018-11-13T12:12:50.223Z,70.00
2018-11-13T12:18:21.759Z,69.90
2018-11-13T12:23:51.422Z,70.10
2018-11-13T12:29:26.922Z,70.30
2018-11-13T12:34:56.543Z,70.40
2018-11-13T12:40:26.163Z,70.50
2018-11-13T12:45:55.483Z,70.60
2018-11-13T12:51:29.893Z,70.70
2018-11-13T12:56:59.254Z,70.70
2018-11-13T13:02:28.670Z,70.70
2018-11-13T13:07:58.011Z,70.80
2018-11-13T13:13:27.328Z,70.40
2018-11-13T13:18:56.673Z,70.70
2018-11-13T13:24:30.321Z,70.70
2018-11-13T13:29:59.668Z,70.70
2018-11-13T13:35:46.076Z,70.60
2018-11-13T13:41:15.420Z,70.70
2018-11-13T13:46:44.949Z,70.60
2018-11-13T13:52:14.210Z,70.70
2018-11-13T13:57:43.472Z,70.80
2018-11-13T14:03:13.617Z,70.80
2018-11-13T14:08:43.163Z,71.60
2018-11-13T14:14:12.532Z,71.20
2018-11-13T14:19:41.959Z,71.30
2018-11-13T14:25:14.581Z,71.20
2018-11-13T14:30:44.157Z,70.80
2018-11-13T14:36:13.729Z,70.60
2018-11-13T14:41:43.124Z,70.40
2018-11-13T14:47:15.149Z,70.00
2018-11-13T14:52:44.939Z,69.60
2018-11-13T14:58:49.222Z,69.50
2018-11-13T15:04:21.564Z,69.50
2018-11-13T15:09:52.968Z,69.70
2018-11-13T15:15:24.037Z,69.60
2018-11-13T15:20:53.477Z,69.80
2018-11-13T15:26:23.841Z,69.80
2018-11-13T15:31:54.478Z,70.00
2018-11-13T15:37:24.261Z,70.20
2018-11-13T15:48:53.457Z,70.40
2018-11-13T15:54:23.008Z,70.60
2018-11-13T15:59:52.444Z,71.40
2018-11-13T16:05:40.980Z,70.60
2018-11-13T16:11:26.382Z,70.40
2018-11-13T16:16:58.353Z,70.40
2018-11-13T16:22:29.679Z,70.60
2018-11-13T16:27:59.017Z,70.70
2018-11-13T16:33:46.361Z,70.70
2018-11-13T16:39:15.901Z,71.10
2018-11-13T16:44:45.255Z,70.80
2018-11-13T16:50:21.732Z,70.90
2018-11-13T16:56:03.926Z,70.90
2018-11-13T17:01:38.923Z,71.00
2018-11-13T17:13:20.613Z,71.20
2018-11-13T17:18:50.111Z,71.30
2018-11-13T17:24:19.530Z,71.30
2018-11-13T17:29:50.669Z,71.50
2018-11-13T17:35:26.530Z,71.50
2018-11-13T17:40:56.230Z,71.50
2018-11-13T17:46:27.600Z,71.70
2018-11-13T17:52:00.966Z,71.90
2018-11-13T17:57:31.458Z,72.00
2018-11-13T18:03:01.662Z,72.20
2018-11-13T18:08:31.590Z,72.30
2018-11-13T18:14:02.331Z,72.40
2018-11-13T18:19:33.970Z,72.50
2018-11-13T18:25:04.725Z,72.60
2018-11-13T18:30:36.363Z,72.80
2018-11-13T18:36:07.526Z,73.00
2018-11-13T18:41:37.596Z,73.30
2018-11-13T18:47:07.074Z,73.40
2018-11-13T18:52:54.128Z,73.60
2018-11-13T18:58:28.721Z,74.80
2018-11-13T19:04:01.552Z,75.00
2018-11-13T19:09:31.885Z,75.10
2018-11-13T19:15:02.478Z,75.20
2018-11-13T19:20:32.024Z,75.30
2018-11-13T19:26:01.343Z,75.40
2018-11-13T19:31:31.112Z,75.50
2018-11-13T19:37:00.682Z,75.50
2018-11-13T19:42:32.079Z,75.80
2018-11-13T19:48:01.667Z,76.10
2018-11-13T19:53:33.281Z,76.10
2018-11-13T19:59:03.698Z,76.10
2018-11-13T20:04:40.551Z,76.30
2018-11-13T20:10:30.429Z,76.30
2018-11-13T20:16:06.138Z,76.40
2018-11-13T20:21:42.583Z,76.40
2018-11-13T20:27:15.600Z,76.10
2018-11-13T20:32:46.104Z,76.30
2018-11-13T20:38:15.827Z,76.30
2018-11-13T20:43:46.202Z,76.30
2018-11-13T20:49:18.202Z,76.40
2018-11-13T20:54:48.090Z,76.30
2018-11-13T21:00:21.072Z,76.40
2018-11-13T21:05:53.927Z,76.30
2018-11-13T21:11:45.133Z,76.40
2018-11-13T21:17:24.585Z,76.50
2018-11-13T21:23:06.118Z,76.50
2018-11-13T21:28:37.967Z,76.60
2018-11-13T21:34:09.560Z,76.60
2018-11-13T21:39:40.026Z,76.60
2018-11-13T21:45:27.837Z,76.60
2018-11-13T21:51:05.324Z,76.60
2018-11-13T22:03:54.159Z,77.00
2018-11-13T22:09:23.820Z,76.80
2018-11-13T22:14:54.456Z,76.90
2018-11-13T22:26:24.054Z,77.00
2018-11-13T22:31:55.878Z,76.90
2018-11-13T22:37:28.378Z,77.00
2018-11-13T22:43:00.799Z,77.10
2018-11-13T22:48:32.325Z,77.00
2018-11-13T22:54:09.505Z,77.00
2018-11-13T22:59:39.758Z,77.00
2018-11-13T23:05:14.633Z,77.10
2018-11-13T23:10:50.691Z,77.10
2018-11-13T23:16:29.729Z,77.10
2018-11-13T23:22:09.639Z,77.00
2018-11-13T23:33:48.063Z,77.20
